KBJJ/BJJ METAR and TAF weather

Enter ICAO airport designator
Station Type Date Time Source
KBJJ METAR 2019/08/22 15:10 UTC NOAA

KBJJ 221510Z AUTO 00000KT 6SM -RA BR BKN010 OVC075 21/20 A3001 RMK AO2 CIG 007V012 P0001 T02110200


Station Type Date Time Source
KBJJ Decoded METAR 2019/08/22 15:10 UTC NOAA

Station name not available
Aug 22, 2019 - 11:10 AM EDT / 2019.08.22 1510 UTC
Wind: Calm:0
Visibility: 6 mile(s):0
Sky conditions: overcast
Weather: light rain; mist
Precipitation last hour: 0.01 inches
Temperature: 70.0 F (21.1 C)
Dew Point: 68.0 F (20.0 C)
Relative Humidity: 93%
Pressure (altimeter): 30.01 in. Hg (1016 hPa)
ob: KBJJ 221510Z AUTO 00000KT 6SM -RA BR BKN010 OVC075 21/20 A3001 RMK AO2 CIG 007V012 P0001 T02110200
cycle: 15

Station Type Date Time Source
KBJJ TAF UTC NOAA

Error!

Example: see airport list